Eagle, South Dakota
Current Conditions -  °F | °C
As of 1:15 AM on Wednesday 22 Oct 2014 (Local Time) from K9V9 Reporting Station
Clear Clear  
Wind Chill: 62°   Ceiling: Unl
Heat Index: 62°   Visibility: 10mi
Dew Point: 46°   Wind: 15mph
Humidity: 55%   Direction: 130°SE
Pressure: 29.84"   Gusts: 22mph
Location:  43.4255°N, 98.9806°W
Report Text: K9V9 220615Z AUTO 13013G19KT 10SM CLR 17/08 A2984 RMK AO2 T01660076
Loading
Personal Weather Stations






























Interactive Weather Map
Tropical Storm Tracking
New forecast layout! Learn more

10-Day Weather Forecast

Advertisements
Track Severe Weather on mobile